Sligo Airport - TAF
(Terminal Area Forecast)

Issued at 09:06 UTC on Tue. 24-Oct-17

--- METARS(SA) ---

METAR EISG(SLIGO) 240830Z 23006KT 9999 FEW017 BKN200 12/10 Q1007 =

--- TAFS() ---

TAF EISG(SLIGO) 240800Z 2409/2418 25017KT 9999 SCT015 BKN025 BECMG

2410/2412 22012KT BECMG 2415/2418 19012KT TEMPO 2416/2418 -RA BKN012 =

--- SIGMETS(WS) ---

IE - No VALID SIGMETS/Warnings FOR THIS AREA

--- SIGMETS Volcanic(WV) ---

IE - No VALID SIGMETS/Warnings FOR THIS AREA

--- SIGMETS(WS) ---

UK - No VALID SIGMETS/Warnings FOR THIS AREA

Sligo Airport - METARs

Latest METARs for Sligo and Donegal Airports - updated every 30 mins